Ayer, Massachusetts
Current Conditions -  °F | °C
As of 4:52 AM on Friday 24 Oct 2014 (Local Time) from KFIT Reporting Station
Overcast Overcast  
Wind Chill: 50°   Ceiling: 2900
Heat Index: 50°   Visibility: 10mi
Dew Point: 47°   Wind: 7mph
Humidity: 89%   Direction: 330°NNW
Pressure: 29.7"   Gusts: NA
Location:  42.56°N, 71.58°W
Report Text: KFIT 240852Z AUTO 33006KT 10SM FEW018 OVC029 10/08 A2970 RMK AO2 RAE0753B13E40 SLP060 P0000 60002 T01000083 55001
Loading
Personal Weather Stations






























Interactive Weather Map
Tropical Storm Tracking
New forecast layout! Learn more

10-Day Weather Forecast

Advertisements
Track Severe Weather on mobile